Time;durP1;ratioP1;P1;durP2;ratioP2;P2;SDS_P1;SDS_P2;PMS_P1;PMS_P2;Temp;Humidity;BMP_temperature;BMP_pressure;BME280_temperature;BME280_humidity;BME280_pressure;Samples;Min_cycle;Max_cycle;Signal;HPM_P1;HPM_P2
2021/08/04 05:00:49;;;;;;;3.45;3.15;;;;;;;29.75;44.71;94815.75;5966308;23;20077;-73
2021/08/04 05:03:15;;;;;;;5.57;3.92;;;;;;;28.09;48.69;94829.50;4964433;28;20070;-74
2021/08/04 05:05:40;;;;;;;5.03;3.50;;;;;;;29.73;44.78;94834.72;4970952;28;20088;-73
2021/08/04 05:08:05;;;;;;;4.88;3.80;;;;;;;28.83;45.99;94826.22;4969365;28;20034;-73
2021/08/04 05:10:31;;;;;;;4.90;4.07;;;;;;;28.91;46.10;94832.78;4955182;28;20527;-73
2021/08/04 05:12:56;;;;;;;6.38;3.20;;;;;;;29.57;45.71;94838.72;4970636;28;20031;-73
2021/08/04 05:15:22;;;;;;;3.90;3.50;;;;;;;29.78;45.52;94839.19;4954239;28;20034;-72
2021/08/04 05:17:47;;;;;;;6.63;3.42;;;;;;;30.21;43.91;94837.13;4952895;28;20042;-73
2021/08/04 05:20:13;;;;;;;5.85;3.50;;;;;;;30.45;43.85;94829.72;4970676;28;20031;-73
2021/08/04 05:22:39;;;;;;;5.25;3.17;;;;;;;31.51;41.58;94832.78;4966063;28;20477;-73
2021/08/04 05:25:05;;;;;;;4.65;3.30;;;;;;;32.07;40.58;94842.13;4972901;28;20037;-73
2021/08/04 05:27:30;;;;;;;5.22;3.22;;;;;;;33.56;37.93;94833.75;4991661;28;20061;-73
2021/08/04 05:29:56;;;;;;;7.50;3.15;;;;;;;33.36;38.27;94829.84;4973009;28;20061;-73
2021/08/04 05:32:21;;;;;;;4.03;2.90;;;;;;;33.25;38.22;94834.75;4976853;28;20095;-72
2021/08/04 05:34:46;;;;;;;6.70;3.03;;;;;;;33.66;37.12;94831.56;4971857;28;20041;-72
2021/08/04 05:37:12;;;;;;;8.48;3.13;;;;;;;33.45;38.56;94825.25;4989866;28;20034;-73
2021/08/04 05:39:37;;;;;;;6.53;3.20;;;;;;;33.00;38.56;94840.06;4989247;28;20026;-73
2021/08/04 05:42:03;;;;;;;7.55;3.45;;;;;;;31.43;40.20;94843.41;4973035;28;20034;-73
2021/08/04 05:44:29;;;;;;;3.75;3.22;;;;;;;32.58;39.69;94810.16;4994796;28;20029;-73
2021/08/04 05:46:54;;;;;;;7.05;3.45;;;;;;;33.16;37.17;94836.63;4991792;28;20521;-72
2021/08/04 05:49:20;;;;;;;4.00;3.08;;;;;;;33.19;36.97;94845.97;4991641;28;20034;-74
2021/08/04 05:51:45;;;;;;;5.03;3.28;;;;;;;32.76;38.50;94843.97;4990780;28;20396;-73
2021/08/04 05:54:11;;;;;;;4.88;3.10;;;;;;;34.05;35.85;94845.88;4974729;28;20040;-74
2021/08/04 05:56:37;;;;;;;7.30;3.40;;;;;;;34.09;35.92;94841.44;4991325;28;20030;-73
2021/08/04 05:59:03;;;;;;;4.90;3.30;;;;;;;33.10;37.04;94845.97;4973148;28;20106;-74
2021/08/04 06:01:28;;;;;;;9.82;3.40;;;;;;;34.01;36.11;94853.00;4953119;28;20030;-73
2021/08/04 06:03:54;;;;;;;5.97;3.70;;;;;;;33.15;37.16;94853.84;4985260;28;20037;-73
2021/08/04 06:06:20;;;;;;;4.90;3.70;;;;;;;31.83;40.06;94856.63;4953727;28;20472;-73
2021/08/04 06:08:46;;;;;;;8.07;3.60;;;;;;;33.41;36.42;94856.53;4974136;28;20031;-73
2021/08/04 06:11:11;;;;;;;5.30;3.50;;;;;;;33.69;35.49;94857.81;4956895;28;20027;-74
2021/08/04 06:13:36;;;;;;;6.85;3.45;;;;;;;33.61;35.72;94855.16;4985064;28;20582;-73
2021/08/04 06:16:02;;;;;;;4.93;3.85;;;;;;;31.83;39.54;94856.63;4971848;28;20392;-74
2021/08/04 06:18:28;;;;;;;4.80;3.53;;;;;;;34.14;35.86;94854.72;4969688;28;20487;-73
2021/08/04 06:20:53;;;;;;;5.78;3.40;;;;;;;32.65;37.33;94831.97;4984551;28;20026;-73
2021/08/04 06:23:18;;;;;;;4.22;3.83;;;;;;;34.15;36.19;94850.94;4982405;28;20511;-74
2021/08/04 06:25:44;;;;;;;4.68;3.90;;;;;;;31.76;39.85;94866.97;4980697;28;20038;-73
2021/08/04 06:28:09;;;;;;;3.95;3.63;;;;;;;32.04;39.77;94856.16;4988337;28;20065;-73
2021/08/04 06:30:35;;;;;;;5.13;3.95;;;;;;;33.57;37.28;94854.97;4987242;28;20468;-73
2021/08/04 06:33:00;;;;;;;6.25;3.67;;;;;;;35.03;35.67;94862.59;4988980;28;20412;-73
2021/08/04 06:35:26;;;;;;;5.57;3.47;;;;;;;34.38;36.94;94861.16;4988080;28;20029;-74
2021/08/04 06:37:52;;;;;;;13.05;4.20;;;;;;;32.78;38.24;94854.41;4972169;28;20474;-73
2021/08/04 06:40:17;;;;;;;6.25;3.78;;;;;;;34.41;35.76;94863.19;4984885;28;20078;-73
2021/08/04 06:42:43;;;;;;;5.30;3.70;;;;;;;35.06;34.87;94855.75;4968781;28;20031;-73
2021/08/04 06:45:09;;;;;;;6.38;3.50;;;;;;;33.63;36.92;94853.72;4970265;28;20063;-74
2021/08/04 06:47:34;;;;;;;4.30;3.90;;;;;;;33.50;37.15;94854.63;4968813;28;20026;-74
2021/08/04 06:50:00;;;;;;;6.57;3.88;;;;;;;35.25;35.21;94853.44;4986848;28;20484;-73
2021/08/04 06:52:25;;;;;;;4.90;4.10;;;;;;;34.43;36.42;94863.66;4984222;28;20109;-73
2021/08/04 06:54:51;;;;;;;4.43;4.00;;;;;;;33.77;36.98;94843.59;4985665;28;20186;-73
2021/08/04 06:57:16;;;;;;;9.27;3.63;;;;;;;33.94;36.51;94858.09;4968787;28;20553;-73
2021/08/04 06:59:42;;;;;;;7.30;3.90;;;;;;;33.97;36.26;94852.09;4983113;28;20027;-73
2021/08/04 07:02:07;;;;;;;11.32;3.95;;;;;;;34.77;35.83;94851.97;4974709;28;20050;-74
2021/08/04 07:04:33;;;;;;;7.57;3.88;;;;;;;34.17;36.33;94837.94;4985698;28;20018;-73
2021/08/04 07:06:59;;;;;;;7.95;4.07;;;;;;;33.87;36.18;94839.75;4969684;28;20415;-74
2021/08/04 07:09:25;;;;;;;14.35;4.78;;;;;;;32.52;37.63;94832.03;5001874;28;20510;-74
2021/08/04 07:11:51;;;;;;;7.15;4.10;;;;;;;32.80;38.25;94847.63;4987445;28;20029;-73
2021/08/04 07:14:19;;;;;;;6.55;4.63;;;;;;;33.29;37.55;94838.38;4986951;28;20038;-73
2021/08/04 07:16:45;;;;;;;7.10;4.60;;;;;;;33.27;36.32;94845.94;4988820;28;20033;-73
2021/08/04 07:19:11;;;;;;;8.05;4.50;;;;;;;33.69;36.54;94840.88;4986002;28;20077;-73
2021/08/04 07:21:38;;;;;;;10.93;4.47;;;;;;;34.59;34.71;94836.97;4987495;28;20029;-73
2021/08/04 07:24:04;;;;;;;9.00;4.38;;;;;;;34.64;34.32;94836.84;4971370;28;20069;-73
2021/08/04 07:26:30;;;;;;;12.65;4.60;;;;;;;34.45;34.08;94836.44;4982459;28;20010;-73
2021/08/04 07:28:56;;;;;;;8.60;4.43;;;;;;;34.62;34.34;94844.44;4984907;28;20488;-73
2021/08/04 07:31:23;;;;;;;6.45;3.70;;;;;;;35.10;34.63;94845.91;4971524;28;20027;-73
2021/08/04 07:33:48;;;;;;;6.65;4.30;;;;;;;35.14;33.89;94838.75;4988855;28;20101;-73
2021/08/04 07:36:14;;;;;;;5.30;4.35;;;;;;;35.08;34.32;94829.25;4987285;28;20597;-73
2021/08/04 07:38:39;;;;;;;9.07;4.25;;;;;;;33.98;35.72;94834.81;4986662;28;20316;-73
2021/08/04 07:41:06;;;;;;;8.18;4.03;;;;;;;34.11;34.45;94834.66;4987228;28;20130;-73
2021/08/04 07:43:31;;;;;;;8.18;4.57;;;;;;;34.57;33.89;94828.44;4985296;28;20499;-73
2021/08/04 07:45:56;;;;;;;8.35;4.22;;;;;;;35.30;32.85;94835.16;4981129;28;20037;-74
2021/08/04 07:48:22;;;;;;;7.82;4.28;;;;;;;35.32;29.79;94840.22;4975124;28;20393;-73
2021/08/04 07:50:47;;;;;;;9.68;4.03;;;;;;;35.13;30.71;94835.25;4950761;28;20034;-73
2021/08/04 07:53:13;;;;;;;8.88;3.28;;;;;;;35.07;26.75;94836.56;4966910;28;20023;-73
2021/08/04 07:55:38;;;;;;;9.07;3.78;;;;;;;34.64;28.59;94842.22;4988439;28;20022;-73
2021/08/04 07:58:04;;;;;;;8.48;3.65;;;;;;;34.67;29.39;94838.09;4966715;28;20053;-73
2021/08/04 08:00:29;;;;;;;8.30;4.20;;;;;;;33.63;31.12;94834.91;4974805;28;20032;-73
2021/08/04 08:02:55;;;;;;;12.43;4.57;;;;;;;33.84;33.38;94830.41;4998373;28;20030;-73
2021/08/04 08:05:20;;;;;;;8.15;4.43;;;;;;;33.37;34.43;94829.50;5000894;28;20048;-73
2021/08/04 08:07:47;;;;;;;9.23;4.55;;;;;;;33.04;33.98;94830.28;4989667;28;20420;-73
2021/08/04 08:10:12;;;;;;;10.82;4.88;;;;;;;32.37;34.10;94835.91;4988569;28;20018;-73
2021/08/04 08:12:37;;;;;;;9.75;4.50;;;;;;;32.29;34.76;94826.75;4973598;28;20082;-73
2021/08/04 08:15:03;;;;;;;9.15;4.45;;;;;;;33.07;31.84;94824.28;4962887;28;20042;-73
2021/08/04 08:17:29;;;;;;;7.85;3.95;;;;;;;33.82;31.42;94823.78;4969999;28;20536;-73
2021/08/04 08:19:54;;;;;;;10.32;3.88;;;;;;;33.50;30.65;94824.28;4986427;28;20038;-73
2021/08/04 08:22:21;;;;;;;10.10;4.82;;;;;;;34.67;30.41;94824.63;4986356;28;20025;-74
2021/08/04 08:24:46;;;;;;;11.48;4.07;;;;;;;34.75;28.50;94823.78;4982788;28;20487;-74
2021/08/04 08:27:12;;;;;;;11.40;3.75;;;;;;;34.67;29.84;94811.16;5001597;28;20025;-73
2021/08/04 08:29:37;;;;;;;8.82;4.15;;;;;;;35.06;29.54;94826.13;4989109;28;21488;-73
2021/08/04 08:32:03;;;;;;;6.47;3.55;;;;;;;34.53;30.27;94826.72;4988423;28;20395;-72
2021/08/04 08:34:29;;;;;;;11.05;4.00;;;;;;;35.23;30.17;94818.72;4989256;28;20030;-72
2021/08/04 08:36:54;;;;;;;5.50;3.65;;;;;;;34.73;29.52;94817.94;4989483;28;20042;-73
2021/08/04 08:39:20;;;;;;;8.32;3.75;;;;;;;34.03;29.52;94813.13;5005803;28;20080;-74
2021/08/04 08:41:45;;;;;;;7.30;3.72;;;;;;;34.18;28.89;94809.94;4973422;28;20103;-72
2021/08/04 08:44:11;;;;;;;8.02;3.47;;;;;;;33.37;31.58;94804.53;4984520;28;20400;-72
2021/08/04 08:46:36;;;;;;;9.07;5.03;;;;;;;34.11;30.36;94813.13;4974124;28;20453;-73
2021/08/04 08:49:03;;;;;;;15.93;4.10;;;;;;;35.06;30.20;94810.75;5004643;28;20088;-73
2021/08/04 08:51:29;;;;;;;7.85;3.40;;;;;;;34.78;28.90;94806.97;5006180;28;20038;-74
2021/08/04 08:53:54;;;;;;;7.75;4.20;;;;;;;34.63;28.94;94805.63;4988165;28;20041;-73
2021/08/04 08:56:20;;;;;;;8.95;3.15;;;;;;;35.52;29.78;94800.84;4990229;28;20099;-74
2021/08/04 08:58:46;;;;;;;8.63;3.50;;;;;;;34.89;29.13;94805.47;4989334;28;20030;-74
2021/08/04 09:01:11;;;;;;;9.05;3.03;;;;;;;33.94;29.48;94796.25;5008467;28;20066;-73
2021/08/04 09:03:37;;;;;;;11.18;3.35;;;;;;;35.16;30.34;94796.13;5009652;28;20033;-74
2021/08/04 09:06:04;;;;;;;12.35;3.47;;;;;;;35.14;29.54;94796.44;4991818;28;20037;-74
2021/08/04 09:08:31;;;;;;;10.23;3.40;;;;;;;34.71;29.64;94793.25;4993663;28;20384;-73
2021/08/04 09:10:58;;;;;;;10.00;4.13;;;;;;;34.81;30.38;94776.69;4986529;28;20851;-74
2021/08/04 09:13:31;;;;;;;6.35;3.75;;;;;;;35.01;30.46;94785.88;4967434;28;20061;-73
2021/08/04 09:16:09;;;;;;;6.30;3.70;;;;;;;34.97;30.42;94785.00;4982736;28;20118;-73
2021/08/04 09:18:48;;;;;;;6.47;3.33;;;;;;;33.81;30.46;94753.09;4970269;28;20038;-73
2021/08/04 09:21:16;;;;;;;9.50;3.88;;;;;;;34.61;30.39;94777.47;4985330;28;20044;-73
2021/08/04 09:23:46;;;;;;;6.25;3.30;;;;;;;34.64;29.94;94774.13;5006485;28;20026;-74
2021/08/04 09:26:14;;;;;;;8.68;3.53;;;;;;;34.29;29.95;94770.81;5008980;28;20110;-72
2021/08/04 09:29:05;;;;;;;11.52;3.22;;;;;;;33.46;30.20;94770.38;5002940;28;20491;-72
2021/08/04 09:31:39;;;;;;;8.07;3.53;;;;;;;33.15;31.02;94772.47;5004970;28;20038;-74
2021/08/04 09:34:33;;;;;;;10.98;3.53;;;;;;;32.85;31.68;94772.28;5007487;28;20089;-73
2021/08/04 09:37:09;;;;;;;5.53;3.45;;;;;;;33.96;31.13;94769.81;4979146;28;20057;-76
2021/08/04 09:39:39;;;;;;;12.35;4.25;;;;;;;32.58;30.84;94766.41;4982623;28;20053;-76
2021/08/04 09:42:05;;;;;;;13.48;3.85;;;;;;;33.62;30.48;94776.84;4986364;28;20120;-75
2021/08/04 09:44:30;;;;;;;14.88;4.25;;;;;;;32.96;29.97;94761.22;4994205;28;20116;-76
2021/08/04 09:47:09;;;;;;;6.65;3.58;;;;;;;32.45;30.73;94762.75;4991439;28;20029;-75
2021/08/04 09:49:34;;;;;;;14.93;4.28;;;;;;;33.13;30.83;94761.28;4991050;28;20049;-74
2021/08/04 09:52:08;;;;;;;10.73;3.20;;;;;;;33.95;30.74;94744.81;5008490;28;20421;-74
2021/08/04 09:54:43;;;;;;;8.05;3.45;;;;;;;33.59;31.53;94747.91;4991386;28;20073;-77
2021/08/04 09:57:10;;;;;;;13.68;3.63;;;;;;;33.71;31.35;94745.41;4991893;28;20467;-74
2021/08/04 09:59:35;;;;;;;8.25;4.13;;;;;;;34.53;31.21;94751.34;4991842;28;20503;-74
2021/08/04 10:02:02;;;;;;;9.18;3.88;;;;;;;34.71;30.88;94736.69;4989882;28;20046;-76
2021/08/04 10:04:28;;;;;;;11.57;4.32;;;;;;;33.22;31.27;94754.78;4988546;28;20802;-74
2021/08/04 10:07:08;;;;;;;10.70;3.13;;;;;;;34.05;31.48;94698.72;5003258;28;20038;-75
2021/08/04 10:09:33;;;;;;;10.95;4.00;;;;;;;34.12;31.04;94743.97;4989043;28;20030;-75
2021/08/04 10:11:58;;;;;;;10.68;3.55;;;;;;;33.64;32.11;94741.59;4974635;28;20543;-75
2021/08/04 10:14:24;;;;;;;5.40;3.30;;;;;;;34.10;31.36;94740.81;4979199;28;20041;-74
2021/08/04 10:16:51;;;;;;;9.23;3.40;;;;;;;34.36;32.16;94736.09;4980606;28;20018;-75
2021/08/04 10:19:16;;;;;;;11.25;4.10;;;;;;;34.62;32.72;94728.66;5002633;28;20018;-74
2021/08/04 10:21:42;;;;;;;8.02;3.40;;;;;;;34.41;30.74;94742.09;4989572;28;20088;-74
2021/08/04 10:24:08;;;;;;;10.00;4.15;;;;;;;34.08;31.21;94737.63;4969169;28;20030;-74
2021/08/04 10:26:35;;;;;;;11.68;4.63;;;;;;;34.41;31.17;94738.59;4985436;28;20034;-75
2021/08/04 10:29:00;;;;;;;10.25;4.63;;;;;;;34.72;30.83;94739.06;4911823;28;20050;-75
2021/08/04 10:31:26;;;;;;;12.38;3.85;;;;;;;34.63;31.25;94740.22;4955216;28;20510;-75
2021/08/04 10:33:52;;;;;;;11.20;4.00;;;;;;;35.07;31.34;94742.25;4954219;28;20029;-76
2021/08/04 10:36:19;;;;;;;8.82;3.55;;;;;;;35.00;30.86;94739.28;4954898;28;20031;-75
2021/08/04 10:38:49;;;;;;;11.93;3.92;;;;;;;34.80;29.78;94732.81;4952984;28;20125;-74
2021/08/04 10:41:14;;;;;;;11.60;4.30;;;;;;;33.98;30.55;94738.78;4968985;28;20126;-74
2021/08/04 10:43:44;;;;;;;7.65;3.72;;;;;;;33.65;30.26;94722.47;4988189;28;20583;-74
2021/08/04 10:46:28;;;;;;;9.82;3.75;;;;;;;33.60;31.39;94733.41;4969801;28;20454;-74
2021/08/04 10:49:05;;;;;;;12.60;3.83;;;;;;;33.35;31.10;94731.53;4987548;28;20447;-75
2021/08/04 10:51:38;;;;;;;8.07;4.63;;;;;;;32.54;31.50;94725.19;4987961;28;20451;-75
2021/08/04 10:54:13;;;;;;;9.90;3.67;;;;;;;34.14;31.28;94710.25;4973651;28;21183;-74
2021/08/04 10:56:41;;;;;;;7.22;3.63;;;;;;;33.99;31.15;94718.84;4933570;28;20026;-75
2021/08/04 10:59:12;;;;;;;11.82;4.13;;;;;;;34.02;31.85;94709.34;4977694;28;20030;-74
2021/08/04 11:01:50;;;;;;;13.88;3.88;;;;;;;34.76;31.66;94718.44;4983888;28;20753;-74
2021/08/04 11:04:28;;;;;;;10.73;4.00;;;;;;;35.32;30.86;94714.31;4955641;28;20105;-74
2021/08/04 11:07:30;;;;;;;10.07;3.45;;;;;;;35.46;29.86;94711.31;4987168;28;20026;-73
2021/08/04 11:09:58;;;;;;;9.10;4.05;;;;;;;34.06;29.43;94700.31;4987384;28;20045;-74
2021/08/04 11:12:27;;;;;;;11.30;3.83;;;;;;;33.47;31.33;94699.41;4968429;28;20534;-75
2021/08/04 11:14:56;;;;;;;8.63;3.65;;;;;;;34.72;31.42;94701.34;4985971;28;20070;-74
2021/08/04 11:17:22;;;;;;;7.35;3.63;;;;;;;34.87;30.52;94698.06;4987469;28;20042;-75
2021/08/04 11:20:04;;;;;;;8.43;4.13;;;;;;;34.78;30.92;94705.41;4986806;28;20450;-74
2021/08/04 11:22:39;;;;;;;12.73;3.47;;;;;;;35.09;29.35;94701.53;4987508;28;20027;-74
2021/08/04 11:25:08;;;;;;;7.85;4.20;;;;;;;34.32;28.46;94697.50;4985506;28;20625;-74
2021/08/04 11:27:55;;;;;;;7.22;3.75;;;;;;;34.79;29.52;94696.22;4987568;28;20033;-75
2021/08/04 11:30:32;;;;;;;6.93;4.18;;;;;;;34.67;29.00;94693.50;4961711;28;20096;-75
2021/08/04 11:33:21;;;;;;;14.00;4.90;;;;;;;35.15;30.31;94694.84;4953146;28;20041;-74
2021/08/04 11:36:11;;;;;;;7.43;3.83;;;;;;;34.78;28.84;94689.25;4987622;28;20062;-75
2021/08/04 11:38:49;;;;;;;9.27;4.43;;;;;;;35.10;29.99;94690.44;4975496;28;20057;-75
2021/08/04 11:41:19;;;;;;;7.93;4.15;;;;;;;35.09;28.32;94688.06;4969416;28;20085;-76
2021/08/04 11:43:45;;;;;;;9.50;3.88;;;;;;;35.03;29.37;94684.78;4987479;28;20133;-76
2021/08/04 11:46:38;;;;;;;9.98;4.97;;;;;;;34.30;29.55;94687.06;4967752;28;20097;-74
2021/08/04 11:49:09;;;;;;;9.55;4.20;;;;;;;34.77;28.79;94676.94;4967124;28;20065;-75
2021/08/04 11:51:37;;;;;;;9.05;4.05;;;;;;;34.23;29.62;94670.63;4965642;28;20030;-76
2021/08/04 11:54:02;;;;;;;14.32;4.78;;;;;;;33.74;29.02;94672.16;4985779;28;20174;-75
2021/08/04 11:56:28;;;;;;;8.68;4.13;;;;;;;34.49;28.48;94669.66;4967138;28;20492;-74
2021/08/04 11:58:58;;;;;;;9.48;4.10;;;;;;;33.72;29.70;94652.84;4932293;28;20031;-75
2021/08/04 12:01:31;;;;;;;6.75;4.50;;;;;;;34.12;29.82;94655.22;4949631;28;20057;-76
2021/08/04 12:04:05;;;;;;;10.82;4.57;;;;;;;34.01;29.35;94653.97;4948350;28;20039;-75
2021/08/04 12:06:33;;;;;;;7.38;4.32;;;;;;;34.74;29.72;94653.34;4969281;28;20045;-76
2021/08/04 12:09:18;;;;;;;6.32;3.83;;;;;;;34.68;29.01;94653.91;4966200;28;20727;-76
2021/08/04 12:11:43;;;;;;;14.75;4.20;;;;;;;34.94;29.77;94657.91;4965080;28;20117;-75
2021/08/04 12:14:09;;;;;;;9.77;3.80;;;;;;;34.98;28.89;94651.84;4967260;28;20118;-75
2021/08/04 12:16:42;;;;;;;11.48;4.32;;;;;;;34.98;28.38;94654.56;4968308;28;20035;-76
2021/08/04 12:19:07;;;;;;;10.25;4.63;;;;;;;35.13;28.96;94652.03;4986196;28;20030;-75
2021/08/04 12:21:33;;;;;;;6.95;3.78;;;;;;;35.34;28.79;94657.38;4984280;28;20496;-76
2021/08/04 12:23:58;;;;;;;12.20;4.70;;;;;;;34.78;28.67;94656.16;4967828;28;20030;-75
2021/08/04 12:26:24;;;;;;;11.48;4.70;;;;;;;34.15;29.17;94649.19;4985714;28;20507;-75
2021/08/04 12:28:49;;;;;;;8.32;4.13;;;;;;;34.90;28.63;94653.53;4969148;28;20026;-76
2021/08/04 12:31:15;;;;;;;13.15;4.90;;;;;;;35.29;28.91;94652.97;4971441;28;20096;-74
2021/08/04 12:33:56;;;;;;;5.10;3.72;;;;;;;34.92;28.76;94657.47;4948687;28;20031;-76
2021/08/04 12:36:34;;;;;;;5.57;3.40;;;;;;;34.52;28.73;94647.50;4987916;28;20062;-75
2021/08/04 12:38:59;;;;;;;7.90;4.30;;;;;;;34.21;29.22;94643.28;4977738;28;20096;-76
2021/08/04 12:41:26;;;;;;;9.77;4.60;;;;;;;34.52;28.71;94648.25;4975817;28;20648;-74
2021/08/04 12:43:55;;;;;;;12.80;4.35;;;;;;;34.65;29.24;94641.06;4972611;28;20105;-75
2021/08/04 12:46:30;;;;;;;;;;;;;;;34.74;29.80;94644.50;4989215;28;20069;-76
2021/08/04 12:48:57;;;;;;;11.13;4.20;;;;;;;34.64;29.38;94644.91;4972459;28;19996;-77
2021/08/04 12:51:23;;;;;;;10.32;4.60;;;;;;;35.08;28.95;94638.75;4972377;28;20057;-74
2021/08/04 12:53:54;;;;;;;9.00;4.85;;;;;;;35.35;28.99;94640.09;4972373;28;20108;-76
2021/08/04 12:56:31;;;;;;;9.48;4.45;;;;;;;34.57;29.28;94640.00;4986874;28;20027;-76
2021/08/04 12:59:01;;;;;;;11.65;4.50;;;;;;;35.00;28.96;94636.16;4968554;28;20030;-77
2021/08/04 13:01:34;;;;;;;8.60;4.10;;;;;;;34.94;28.85;94627.50;4951638;28;20093;-76
2021/08/04 13:04:29;;;;;;;9.43;3.85;;;;;;;34.59;29.20;94626.19;4953778;28;20069;-75
2021/08/04 13:07:05;;;;;;;8.70;3.80;;;;;;;34.84;29.95;94617.13;4974152;28;20125;-75
2021/08/04 13:09:36;;;;;;;10.25;4.18;;;;;;;35.00;28.88;94615.38;4988738;28;20042;-77
2021/08/04 13:12:24;;;;;;;8.18;3.90;;;;;;;35.05;28.64;94612.50;4986027;28;20033;-77
2021/08/04 13:14:57;;;;;;;12.17;4.67;;;;;;;34.62;28.93;94614.81;4967586;28;20504;-75
2021/08/04 13:17:23;;;;;;;10.18;4.30;;;;;;;34.35;29.06;94613.44;4947571;28;20049;-74
2021/08/04 13:19:48;;;;;;;11.50;4.45;;;;;;;34.19;28.86;94617.81;4982078;28;20200;-74
2021/08/04 13:22:14;;;;;;;14.25;4.07;;;;;;;34.63;29.02;94608.31;4945521;28;20607;-75
2021/08/04 13:24:39;;;;;;;11.40;4.05;;;;;;;34.86;29.38;94607.63;4958617;28;20030;-75
2021/08/04 13:27:28;;;;;;;11.68;3.97;;;;;;;35.24;29.05;94614.69;4972134;28;20488;-75
2021/08/04 13:29:53;;;;;;;11.48;4.88;;;;;;;35.11;29.37;94600.41;4971883;28;20117;-75
2021/08/04 13:32:25;;;;;;;9.43;4.43;;;;;;;35.12;29.64;94611.97;4971294;28;20560;-75
2021/08/04 13:34:51;;;;;;;10.15;4.13;;;;;;;34.49;29.71;94616.63;4971257;28;20033;-75
2021/08/04 13:37:16;;;;;;;19.25;4.32;;;;;;;34.94;29.48;94627.50;4988957;28;20030;-75
2021/08/04 13:39:42;;;;;;;9.60;3.80;;;;;;;34.94;29.63;94622.91;4971310;28;20542;-74
2021/08/04 13:42:08;;;;;;;9.82;4.28;;;;;;;35.03;29.59;94620.13;4961792;28;20041;-75
2021/08/04 13:44:33;;;;;;;8.40;3.45;;;;;;;35.03;29.47;94622.03;4987883;28;20038;-74
2021/08/04 13:46:58;;;;;;;9.32;3.83;;;;;;;34.86;28.54;94618.41;4968949;28;20041;-74
2021/08/04 13:49:24;;;;;;;8.88;3.67;;;;;;;34.82;28.54;94614.00;4987656;28;20030;-74
2021/08/04 13:51:49;;;;;;;6.68;3.30;;;;;;;34.52;29.64;94621.34;4970911;28;20046;-74
2021/08/04 13:54:15;;;;;;;7.47;3.33;;;;;;;34.53;28.88;94620.25;4967247;28;20072;-75
2021/08/04 13:56:40;;;;;;;6.22;3.28;;;;;;;34.70;29.29;94620.13;4985667;28;20104;-76
2021/08/04 13:59:07;;;;;;;14.13;3.75;;;;;;;34.47;28.72;94618.06;4969363;28;20049;-74
2021/08/04 14:01:33;;;;;;;5.75;3.38;;;;;;;34.60;30.07;94607.06;4988210;28;20049;-75
2021/08/04 14:03:58;;;;;;;12.65;3.78;;;;;;;34.75;29.60;94590.28;4966658;28;20412;-73
2021/08/04 14:06:25;;;;;;;8.45;3.47;;;;;;;34.53;29.25;94617.53;4969155;28;20065;-75
2021/08/04 14:08:50;;;;;;;8.65;3.08;;;;;;;34.62;29.94;94601.34;4981536;28;20026;-76
2021/08/04 14:11:16;;;;;;;6.78;2.92;;;;;;;34.51;28.95;94622.50;4985316;28;20516;-74
2021/08/04 14:13:41;;;;;;;5.80;2.53;;;;;;;34.60;29.35;94614.31;4947936;28;20034;-75
2021/08/04 14:16:07;;;;;;;9.10;2.95;;;;;;;34.47;29.11;94615.38;4966217;28;20038;-74
2021/08/04 14:18:34;;;;;;;10.45;3.05;;;;;;;34.69;28.45;94613.16;4983139;28;20312;-74
2021/08/04 14:20:59;;;;;;;7.13;3.10;;;;;;;34.68;27.76;94600.81;4948316;28;20492;-74
2021/08/04 14:23:25;;;;;;;10.40;3.05;;;;;;;34.22;28.60;94603.72;4975399;28;20042;-74
2021/08/04 14:25:50;;;;;;;11.32;3.13;;;;;;;34.18;29.08;94616.25;4963341;28;20031;-78
2021/08/04 14:28:16;;;;;;;10.00;3.17;;;;;;;33.85;29.18;94605.34;4967579;28;20066;-75
2021/08/04 14:30:41;;;;;;;6.88;2.50;;;;;;;33.71;29.33;94608.28;4946637;28;20037;-76
2021/08/04 14:33:06;;;;;;;6.65;2.83;;;;;;;33.71;29.24;94618.25;4979509;28;20031;-77
2021/08/04 14:35:32;;;;;;;7.45;3.35;;;;;;;33.71;29.10;94615.56;4974820;28;20038;-74
2021/08/04 14:37:57;;;;;;;6.90;2.75;;;;;;;33.70;28.44;94619.34;4965594;28;20472;-76
2021/08/04 14:40:23;;;;;;;8.52;2.83;;;;;;;33.45;29.24;94615.66;4986062;28;20507;-73
2021/08/04 14:42:48;;;;;;;9.30;3.08;;;;;;;33.58;29.77;94613.84;4952883;28;20069;-75
2021/08/04 14:45:14;;;;;;;7.30;2.85;;;;;;;33.53;30.60;94608.66;4953952;28;20427;-74
2021/08/04 14:47:39;;;;;;;7.22;2.67;;;;;;;33.81;30.46;94621.34;4938306;28;20100;-76
2021/08/04 14:50:05;;;;;;;7.82;3.28;;;;;;;33.59;28.95;94616.22;4968308;28;20050;-74
2021/08/04 14:52:31;;;;;;;5.32;2.88;;;;;;;33.34;30.05;94627.84;4952160;28;20042;-74
2021/08/04 14:54:57;;;;;;;6.90;2.70;;;;;;;33.12;27.53;94622.72;4952069;28;20492;-73
2021/08/04 14:57:22;;;;;;;9.57;2.78;;;;;;;32.85;25.60;94621.16;4966875;28;20058;-74
2021/08/04 14:59:48;;;;;;;4.43;2.33;;;;;;;33.04;24.64;94631.56;4968947;28;20026;-75
2021/08/04 15:02:13;;;;;;;3.75;2.42;;;;;;;33.37;24.95;94636.06;4969493;28;20045;-75
2021/08/04 15:04:39;;;;;;;6.57;2.60;;;;;;;33.58;24.95;94633.47;4968400;28;20030;-74
2021/08/04 15:07:06;;;;;;;6.03;2.28;;;;;;;33.60;24.88;94619.69;4969572;28;20033;-74
2021/08/04 15:09:33;;;;;;;7.80;2.63;;;;;;;33.55;25.02;94587.63;4936769;28;20424;-75
2021/08/04 15:11:59;;;;;;;8.25;2.60;;;;;;;33.38;25.29;94615.38;4938689;28;20377;-75
2021/08/04 15:14:24;;;;;;;9.48;2.25;;;;;;;33.25;26.53;94609.09;4952657;28;20042;-75
2021/08/04 15:16:50;;;;;;;4.70;2.72;;;;;;;33.26;26.98;94617.94;4936735;28;20030;-74
2021/08/04 15:19:15;;;;;;;7.70;2.50;;;;;;;33.06;25.67;94607.84;4963350;28;20058;-73
2021/08/04 15:21:41;;;;;;;8.35;2.35;;;;;;;33.06;26.84;94605.97;4968425;28;20480;-73
2021/08/04 15:24:06;;;;;;;5.97;2.33;;;;;;;32.84;26.52;94612.34;4969228;28;20038;-74
2021/08/04 15:26:32;;;;;;;7.38;2.70;;;;;;;32.96;26.93;94608.97;4984444;28;20427;-73
2021/08/04 15:28:57;;;;;;;4.93;2.47;;;;;;;32.93;25.93;94606.94;4968983;28;20513;-74
2021/08/04 15:31:23;;;;;;;3.58;2.70;;;;;;;32.95;26.63;94609.28;4984218;28;20046;-74
2021/08/04 15:33:48;;;;;;;9.23;2.83;;;;;;;32.79;25.06;94601.75;4969172;28;20034;-74
2021/08/04 15:36:14;;;;;;;6.28;2.78;;;;;;;32.85;25.42;94597.00;4952230;28;20034;-74
2021/08/04 15:38:43;;;;;;;8.68;2.80;;;;;;;32.66;25.68;94600.03;4967017;28;20109;-74
2021/08/04 15:41:08;;;;;;;7.82;2.60;;;;;;;32.57;26.51;94588.53;4969126;28;20126;-74
2021/08/04 15:43:34;;;;;;;7.68;2.63;;;;;;;32.79;26.76;94591.00;4968159;28;20486;-74
2021/08/04 15:46:00;;;;;;;4.43;2.20;;;;;;;32.83;26.16;94596.53;4936952;28;20026;-74
2021/08/04 15:48:26;;;;;;;13.50;2.80;;;;;;;33.04;26.46;94591.28;4967406;28;20053;-74
2021/08/04 15:50:51;;;;;;;11.15;3.33;;;;;;;32.83;25.46;94591.97;4969327;28;20485;-74
2021/08/04 15:53:17;;;;;;;5.35;2.35;;;;;;;32.74;26.31;94591.19;4967980;28;20035;-74
2021/08/04 15:55:42;;;;;;;6.22;2.47;;;;;;;32.62;26.29;94593.75;4968855;28;20034;-74
2021/08/04 15:58:08;;;;;;;6.70;2.42;;;;;;;32.12;28.81;94580.00;4967991;28;20412;-73
2021/08/04 16:00:34;;;;;;;11.00;2.85;;;;;;;32.18;27.64;94588.66;4952308;28;20095;-73
2021/08/04 16:02:59;;;;;;;8.57;2.95;;;;;;;32.06;28.42;94585.81;4985860;28;20081;-74
2021/08/04 16:05:25;;;;;;;10.75;2.47;;;;;;;31.96;28.78;94589.56;4952052;28;20437;-74
2021/08/04 16:07:50;;;;;;;6.57;2.97;;;;;;;31.70;30.81;94594.88;4951885;28;20164;-74
2021/08/04 16:10:16;;;;;;;7.13;2.85;;;;;;;31.56;31.66;94588.06;4984715;28;20030;-74
2021/08/04 16:12:41;;;;;;;7.40;2.72;;;;;;;31.29;30.99;94589.84;4952724;28;20031;-73
2021/08/04 16:15:07;;;;;;;8.90;2.35;;;;;;;31.19;33.47;94595.47;4985172;28;20033;-74
2021/08/04 16:17:33;;;;;;;7.60;2.65;;;;;;;31.14;31.63;94584.13;4952014;28;20031;-73
2021/08/04 16:19:58;;;;;;;4.78;2.25;;;;;;;30.98;33.09;94581.06;4952602;28;20050;-74
2021/08/04 16:22:23;;;;;;;3.88;2.30;;;;;;;30.74;32.60;94556.47;4984552;28;20034;-74
2021/08/04 16:24:49;;;;;;;6.55;2.25;;;;;;;30.99;33.42;94576.47;4952405;28;20026;-73
2021/08/04 16:27:14;;;;;;;10.45;3.30;;;;;;;31.14;31.73;94571.53;4967882;28;20049;-73
2021/08/04 16:29:40;;;;;;;5.90;2.88;;;;;;;30.99;30.03;94576.47;4968580;28;20109;-74
2021/08/04 16:32:07;;;;;;;7.90;2.85;;;;;;;31.03;31.52;94580.13;4932210;28;20034;-73
2021/08/04 16:34:35;;;;;;;12.63;3.50;;;;;;;30.99;34.90;94574.59;4950882;28;20062;-74